Ukiah, California
Current Conditions -  °F | °C
As of 3:56 AM on Monday 20 Oct 2014 (Local Time) from KUKI Reporting Station
Overcast Overcast  
Wind Chill: 61°   Ceiling: 2600
Heat Index: 61°   Visibility: 10mi
Dew Point: 55°   Wind: 7mph
Humidity: 81%   Direction: 170°S
Pressure: 29.88"   Gusts: NA
Location:  39.15°N, 123.2°W
Report Text: KUKI 201056Z AUTO 17006KT 10SM BKN026 OVC036 16/13 A2988 RMK AO2 SLP112 T01610128
Loading
Personal Weather Stations






























Interactive Weather Map New forecast layout! Learn more

10-Day Weather Forecast

Advertisements
Track Severe Weather on mobile